sensor_id;sensor_type;location;lat;lon;timestamp;pressure;altitude;pressure_sealevel;temperature;humidity
55044;BME280;54902;50.420;18.854;2024-02-15T00:00:28;101825.10;;;7.57;74.03
55044;BME280;54902;50.420;18.854;2024-02-15T00:00:59;101822.38;;;7.57;74.04
55044;BME280;54902;50.420;18.854;2024-02-15T00:01:30;101823.25;;;7.57;74.03
55044;BME280;54902;50.420;18.854;2024-02-15T00:02:01;101829.55;;;7.58;74.03
55044;BME280;54902;50.420;18.854;2024-02-15T00:02:32;101817.81;;;7.57;74.03
55044;BME280;54902;50.420;18.854;2024-02-15T00:03:05;101825.01;;;7.58;74.04
55044;BME280;54902;50.420;18.854;2024-02-15T00:03:43;101826.83;;;7.58;74.03
55044;BME280;54902;50.420;18.854;2024-02-15T00:04:15;101825.88;;;7.59;74.04
55044;BME280;54902;50.420;18.854;2024-02-15T00:04:49;101835.89;;;7.58;74.05
55044;BME280;54902;50.420;18.854;2024-02-15T00:05:20;101825.01;;;7.58;74.06
55044;BME280;54902;50.420;18.854;2024-02-15T00:05:51;101825.88;;;7.59;74.04
55044;BME280;54902;50.420;18.854;2024-02-15T00:06:23;101833.17;;;7.58;74.07
55044;BME280;54902;50.420;18.854;2024-02-15T00:06:54;101828.69;;;7.57;74.07
55044;BME280;54902;50.420;18.854;2024-02-15T00:07:25;101830.45;;;7.58;74.05
55044;BME280;54902;50.420;18.854;2024-02-15T00:07:57;101831.41;;;7.57;74.08
55044;BME280;54902;50.420;18.854;2024-02-15T00:08:30;101820.52;;;7.57;74.08
55044;BME280;54902;50.420;18.854;2024-02-15T00:09:01;101833.17;;;7.58;74.06
55044;BME280;54902;50.420;18.854;2024-02-15T00:09:32;101829.46;;;7.59;74.08
55044;BME280;54902;50.420;18.854;2024-02-15T00:10:04;101835.89;;;7.58;74.06
55044;BME280;54902;50.420;18.854;2024-02-15T00:10:35;101835.89;;;7.58;74.05
55044;BME280;54902;50.420;18.854;2024-02-15T00:11:06;101835.89;;;7.58;74.07
55044;BME280;54902;50.420;18.854;2024-02-15T00:11:39;101838.61;;;7.58;74.07
55044;BME280;54902;50.420;18.854;2024-02-15T00:12:11;101831.32;;;7.59;74.09
55044;BME280;54902;50.420;18.854;2024-02-15T00:12:42;101835.89;;;7.58;74.07
55044;BME280;54902;50.420;18.854;2024-02-15T00:13:13;101832.27;;;7.58;74.07
55044;BME280;54902;50.420;18.854;2024-02-15T00:13:44;101836.76;;;7.59;74.07
55044;BME280;54902;50.420;18.854;2024-02-15T00:14:15;101837.71;;;7.58;74.02
55044;BME280;54902;50.420;18.854;2024-02-15T00:14:47;101841.33;;;7.58;74.07
55044;BME280;54902;50.420;18.854;2024-02-15T00:15:18;101837.71;;;7.58;74.13
55044;BME280;54902;50.420;18.854;2024-02-15T00:15:50;101828.59;;;7.59;74.10
55044;BME280;54902;50.420;18.854;2024-02-15T00:16:21;101841.33;;;7.58;74.08
55044;BME280;54902;50.420;18.854;2024-02-15T00:16:52;101841.33;;;7.58;74.07
55044;BME280;54902;50.420;18.854;2024-02-15T00:17:23;101835.89;;;7.58;74.06
55044;BME280;54902;50.420;18.854;2024-02-15T00:17:54;101835.89;;;7.58;74.08
55044;BME280;54902;50.420;18.854;2024-02-15T00:18:25;101841.33;;;7.58;74.08
55044;BME280;54902;50.420;18.854;2024-02-15T00:18:56;101837.63;;;7.59;74.08
55044;BME280;54902;50.420;18.854;2024-02-15T00:19:27;101836.76;;;7.59;74.07
55044;BME280;54902;50.420;18.854;2024-02-15T00:20:01;101847.63;;;7.59;74.06
55044;BME280;54902;50.420;18.854;2024-02-15T00:20:39;101833.32;;;7.55;74.03
55044;BME280;54902;50.420;18.854;2024-02-15T00:21:10;101838.61;;;7.58;74.06
55044;BME280;54902;50.420;18.854;2024-02-15T00:21:43;101840.34;;;7.59;74.07
55044;BME280;54902;50.420;18.854;2024-02-15T00:22:14;101830.45;;;7.58;74.07
55044;BME280;54902;50.420;18.854;2024-02-15T00:22:46;101830.45;;;7.58;74.07
55044;BME280;54902;50.420;18.854;2024-02-15T00:23:18;101840.34;;;7.59;74.08
55044;BME280;54902;50.420;18.854;2024-02-15T00:23:49;101826.74;;;7.59;74.09
55044;BME280;54902;50.420;18.854;2024-02-15T00:24:20;101830.45;;;7.58;74.11
55044;BME280;54902;50.420;18.854;2024-02-15T00:24:52;101833.17;;;7.58;74.12
55044;BME280;54902;50.420;18.854;2024-02-15T00:25:24;101835.89;;;7.58;74.12
55044;BME280;54902;50.420;18.854;2024-02-15T00:25:56;101835.89;;;7.58;74.12
55044;BME280;54902;50.420;18.854;2024-02-15T00:26:27;101828.59;;;7.59;74.12
55044;BME280;54902;50.420;18.854;2024-02-15T00:26:58;101834.90;;;7.59;74.12
55044;BME280;54902;50.420;18.854;2024-02-15T00:27:29;101835.00;;;7.58;74.13
55044;BME280;54902;50.420;18.854;2024-02-15T00:28:00;101835.89;;;7.58;74.13
55044;BME280;54902;50.420;18.854;2024-02-15T00:28:32;101835.00;;;7.58;74.13
55044;BME280;54902;50.420;18.854;2024-02-15T00:29:05;101835.89;;;7.58;74.14
55044;BME280;54902;50.420;18.854;2024-02-15T00:29:36;101834.13;;;7.57;74.13
55044;BME280;54902;50.420;18.854;2024-02-15T00:30:08;101841.33;;;7.58;74.14
55044;BME280;54902;50.420;18.854;2024-02-15T00:30:39;101832.27;;;7.58;74.10
55044;BME280;54902;50.420;18.854;2024-02-15T00:31:11;101838.61;;;7.58;74.15
55044;BME280;54902;50.420;18.854;2024-02-15T00:31:42;101837.80;;;7.56;74.15
55044;BME280;54902;50.420;18.854;2024-02-15T00:32:13;101845.87;;;7.58;74.15
55044;BME280;54902;50.420;18.854;2024-02-15T00:32:44;101845.77;;;7.59;74.15
55044;BME280;54902;50.420;18.854;2024-02-15T00:33:17;101846.77;;;7.58;74.16
55044;BME280;54902;50.420;18.854;2024-02-15T00:33:48;101845.00;;;7.57;74.16
55044;BME280;54902;50.420;18.854;2024-02-15T00:34:18;101845.00;;;7.57;74.16
55044;BME280;54902;50.420;18.854;2024-02-15T00:34:49;101839.56;;;7.57;74.18
55044;BME280;54902;50.420;18.854;2024-02-15T00:35:21;101849.48;;;7.58;74.17
55044;BME280;54902;50.420;18.854;2024-02-15T00:35:52;101849.48;;;7.58;74.18
55044;BME280;54902;50.420;18.854;2024-02-15T00:36:23;101849.48;;;7.58;74.18
55044;BME280;54902;50.420;18.854;2024-02-15T00:36:54;101845.87;;;7.58;74.16
55044;BME280;54902;50.420;18.854;2024-02-15T00:37:25;101852.20;;;7.58;74.17
55044;BME280;54902;50.420;18.854;2024-02-15T00:37:56;101852.20;;;7.58;74.17
55044;BME280;54902;50.420;18.854;2024-02-15T00:38:28;101855.88;;;7.57;74.16
55044;BME280;54902;50.420;18.854;2024-02-15T00:38:59;101846.77;;;7.58;74.15
55044;BME280;54902;50.420;18.854;2024-02-15T00:39:30;101852.20;;;7.58;74.14
55044;BME280;54902;50.420;18.854;2024-02-15T00:40:03;101833.17;;;7.58;74.15
55044;BME280;54902;50.420;18.854;2024-02-15T00:40:34;101842.28;;;7.57;74.16
55044;BME280;54902;50.420;18.854;2024-02-15T00:41:05;101843.15;;;7.58;74.17
55044;BME280;54902;50.420;18.854;2024-02-15T00:41:37;101852.20;;;7.58;74.15
55044;BME280;54902;50.420;18.854;2024-02-15T00:42:11;101845.95;;;7.56;74.18
55044;BME280;54902;50.420;18.854;2024-02-15T00:42:43;101849.48;;;7.58;74.18
55044;BME280;54902;50.420;18.854;2024-02-15T00:43:14;101842.28;;;7.57;74.18
55044;BME280;54902;50.420;18.854;2024-02-15T00:43:46;101848.58;;;7.58;74.17
55044;BME280;54902;50.420;18.854;2024-02-15T00:44:16;101845.87;;;7.58;74.19
55044;BME280;54902;50.420;18.854;2024-02-15T00:44:48;101854.02;;;7.58;74.17
55044;BME280;54902;50.420;18.854;2024-02-15T00:45:19;101845.18;;;7.54;74.19
55044;BME280;54902;50.420;18.854;2024-02-15T00:45:50;101848.67;;;7.56;74.18
55044;BME280;54902;50.420;18.854;2024-02-15T00:46:21;101850.43;;;7.57;74.19
55044;BME280;54902;50.420;18.854;2024-02-15T00:46:52;101849.57;;;7.57;74.20
55044;BME280;54902;50.420;18.854;2024-02-15T00:47:23;101847.73;;;7.57;74.18
55044;BME280;54902;50.420;18.854;2024-02-15T00:47:54;101852.20;;;7.58;74.19
55044;BME280;54902;50.420;18.854;2024-02-15T00:48:26;101845.00;;;7.57;74.20
55044;BME280;54902;50.420;18.854;2024-02-15T00:49:00;101853.16;;;7.57;74.22
55044;BME280;54902;50.420;18.854;2024-02-15T00:49:31;101855.88;;;7.57;74.20
55044;BME280;54902;50.420;18.854;2024-02-15T00:50:03;101846.77;;;7.58;74.22
55044;BME280;54902;50.420;18.854;2024-02-15T00:50:34;101846.77;;;7.58;74.20
55044;BME280;54902;50.420;18.854;2024-02-15T00:51:05;101839.56;;;7.57;74.20
55044;BME280;54902;50.420;18.854;2024-02-15T00:51:36;101852.20;;;7.58;74.20
55044;BME280;54902;50.420;18.854;2024-02-15T00:52:07;101852.29;;;7.57;74.21
55044;BME280;54902;50.420;18.854;2024-02-15T00:52:39;101850.35;;;7.59;74.20
55044;BME280;54902;50.420;18.854;2024-02-15T00:53:10;101846.77;;;7.58;74.22
55044;BME280;54902;50.420;18.854;2024-02-15T00:53:41;101848.58;;;7.58;74.22
55044;BME280;54902;50.420;18.854;2024-02-15T00:54:12;101850.35;;;7.59;74.22
55044;BME280;54902;50.420;18.854;2024-02-15T00:54:43;101847.63;;;7.59;74.23
55044;BME280;54902;50.420;18.854;2024-02-15T00:55:14;101847.73;;;7.57;74.23
55044;BME280;54902;50.420;18.854;2024-02-15T00:55:45;101846.77;;;7.58;74.22
55044;BME280;54902;50.420;18.854;2024-02-15T00:56:16;101857.65;;;7.58;74.23
55044;BME280;54902;50.420;18.854;2024-02-15T00:56:48;101847.63;;;7.59;74.23
55044;BME280;54902;50.420;18.854;2024-02-15T00:57:19;101850.43;;;7.57;74.24
55044;BME280;54902;50.420;18.854;2024-02-15T00:57:50;101844.05;;;7.58;74.24
55044;BME280;54902;50.420;18.854;2024-02-15T00:58:20;101849.48;;;7.58;74.23
55044;BME280;54902;50.420;18.854;2024-02-15T00:58:52;101850.35;;;7.59;74.25
55044;BME280;54902;50.420;18.854;2024-02-15T00:59:23;101852.20;;;7.58;74.23
55044;BME280;54902;50.420;18.854;2024-02-15T00:59:54;101853.06;;;7.59;74.24
55044;BME280;54902;50.420;18.854;2024-02-15T01:00:25;101855.79;;;7.59;74.24
55044;BME280;54902;50.420;18.854;2024-02-15T01:00:56;101856.74;;;7.58;74.24
55044;BME280;54902;50.420;18.854;2024-02-15T01:01:27;101856.66;;;7.59;74.25
55044;BME280;54902;50.420;18.854;2024-02-15T01:01:58;101852.20;;;7.58;74.26
55044;BME280;54902;50.420;18.854;2024-02-15T01:02:30;101852.20;;;7.58;74.26
55044;BME280;54902;50.420;18.854;2024-02-15T01:03:01;101853.06;;;7.59;74.27
55044;BME280;54902;50.420;18.854;2024-02-15T01:03:33;101860.36;;;7.58;74.28
55044;BME280;54902;50.420;18.854;2024-02-15T01:04:05;101863.95;;;7.59;74.26
55044;BME280;54902;50.420;18.854;2024-02-15T01:04:36;101852.20;;;7.58;74.24
55044;BME280;54902;50.420;18.854;2024-02-15T01:05:08;101853.94;;;7.59;74.24
55044;BME280;54902;50.420;18.854;2024-02-15T01:05:40;101859.38;;;7.59;74.27
55044;BME280;54902;50.420;18.854;2024-02-15T01:06:11;101859.38;;;7.59;74.26
55044;BME280;54902;50.420;18.854;2024-02-15T01:06:42;101858.42;;;7.60;74.26
55044;BME280;54902;50.420;18.854;2024-02-15T01:07:13;101853.94;;;7.59;74.27
55044;BME280;54902;50.420;18.854;2024-02-15T01:07:44;101851.40;;;7.56;74.28
55044;BME280;54902;50.420;18.854;2024-02-15T01:08:15;101856.66;;;7.59;74.28
55044;BME280;54902;50.420;18.854;2024-02-15T01:08:46;101851.22;;;7.59;74.28
55044;BME280;54902;50.420;18.854;2024-02-15T01:09:17;101859.38;;;7.59;74.28
55044;BME280;54902;50.420;18.854;2024-02-15T01:09:49;101848.50;;;7.59;74.29
55044;BME280;54902;50.420;18.854;2024-02-15T01:10:20;101851.22;;;7.59;74.27
55044;BME280;54902;50.420;18.854;2024-02-15T01:10:51;101859.38;;;7.59;74.33
55044;BME280;54902;50.420;18.854;2024-02-15T01:11:24;101848.50;;;7.59;74.27
55044;BME280;54902;50.420;18.854;2024-02-15T01:11:56;101850.26;;;7.60;74.29
55044;BME280;54902;50.420;18.854;2024-02-15T01:12:27;101848.50;;;7.59;74.29
55044;BME280;54902;50.420;18.854;2024-02-15T01:12:58;101846.67;;;7.60;74.30
55044;BME280;54902;50.420;18.854;2024-02-15T01:13:29;101844.82;;;7.60;74.48
55044;BME280;54902;50.420;18.854;2024-02-15T01:14:00;101854.84;;;7.60;74.29
55044;BME280;54902;50.420;18.854;2024-02-15T01:14:31;101857.47;;;7.61;74.30
55044;BME280;54902;50.420;18.854;2024-02-15T01:15:02;101849.40;;;7.60;74.29
55044;BME280;54902;50.420;18.854;2024-02-15T01:15:34;101847.55;;;7.60;74.29
55044;BME280;54902;50.420;18.854;2024-02-15T01:16:09;101850.26;;;7.60;74.30
55044;BME280;54902;50.420;18.854;2024-02-15T01:16:41;101850.26;;;7.60;74.30
55044;BME280;54902;50.420;18.854;2024-02-15T01:17:12;101849.40;;;7.60;74.30
55044;BME280;54902;50.420;18.854;2024-02-15T01:17:43;101844.82;;;7.60;74.30
55044;BME280;54902;50.420;18.854;2024-02-15T01:18:14;101843.96;;;7.60;74.30
55044;BME280;54902;50.420;18.854;2024-02-15T01:18:45;101840.34;;;7.59;74.31
55044;BME280;54902;50.420;18.854;2024-02-15T01:19:16;101848.45;;;7.61;74.32
55044;BME280;54902;50.420;18.854;2024-02-15T01:19:47;101847.55;;;7.60;74.32
55044;BME280;54902;50.420;18.854;2024-02-15T01:20:18;101849.30;;;7.61;74.33
55044;BME280;54902;50.420;18.854;2024-02-15T01:20:51;101852.98;;;7.60;74.32
55044;BME280;54902;50.420;18.854;2024-02-15T01:21:23;101845.72;;;7.61;74.32
55044;BME280;54902;50.420;18.854;2024-02-15T01:21:54;101833.95;;;7.60;74.32
55044;BME280;54902;50.420;18.854;2024-02-15T01:22:25;101840.29;;;7.61;74.31
55044;BME280;54902;50.420;18.854;2024-02-15T01:22:57;101840.29;;;7.61;74.33
55044;BME280;54902;50.420;18.854;2024-02-15T01:23:28;101839.38;;;7.60;74.33
55044;BME280;54902;50.420;18.854;2024-02-15T01:23:59;101846.59;;;7.61;74.32
55044;BME280;54902;50.420;18.854;2024-02-15T01:24:33;101844.82;;;7.60;74.30
55044;BME280;54902;50.420;18.854;2024-02-15T01:25:05;101839.38;;;7.60;74.34
55044;BME280;54902;50.420;18.854;2024-02-15T01:25:37;101835.70;;;7.61;74.34
55044;BME280;54902;50.420;18.854;2024-02-15T01:26:10;101840.29;;;7.61;74.32
55044;BME280;54902;50.420;18.854;2024-02-15T01:26:44;101839.30;;;7.62;74.33
55044;BME280;54902;50.420;18.854;2024-02-15T01:27:19;101841.15;;;7.61;74.33
55044;BME280;54902;50.420;18.854;2024-02-15T01:27:50;101839.38;;;7.60;74.35
55044;BME280;54902;50.420;18.854;2024-02-15T01:28:21;101836.68;;;7.60;74.33
55044;BME280;54902;50.420;18.854;2024-02-15T01:28:53;101838.44;;;7.61;74.34
55044;BME280;54902;50.420;18.854;2024-02-15T01:29:24;101837.56;;;7.61;74.33
55044;BME280;54902;50.420;18.854;2024-02-15T01:29:56;101838.44;;;7.61;74.34
55044;BME280;54902;50.420;18.854;2024-02-15T01:30:28;101836.58;;;7.62;74.36
55044;BME280;54902;50.420;18.854;2024-02-15T01:30:59;101833.95;;;7.60;74.33
55044;BME280;54902;50.420;18.854;2024-02-15T01:31:30;101832.99;;;7.61;74.34
55044;BME280;54902;50.420;18.854;2024-02-15T01:32:02;101830.27;;;7.61;74.36
55044;BME280;54902;50.420;18.854;2024-02-15T01:32:33;101831.14;;;7.62;74.35
55044;BME280;54902;50.420;18.854;2024-02-15T01:33:04;101828.51;;;7.60;74.37
55044;BME280;54902;50.420;18.854;2024-02-15T01:33:35;101825.80;;;7.60;74.36
55044;BME280;54902;50.420;18.854;2024-02-15T01:34:07;101823.07;;;7.60;74.36
55044;BME280;54902;50.420;18.854;2024-02-15T01:34:38;101830.27;;;7.61;74.36
55044;BME280;54902;50.420;18.854;2024-02-15T01:35:09;101835.70;;;7.61;74.36
55044;BME280;54902;50.420;18.854;2024-02-15T01:35:40;101828.41;;;7.62;74.37
55044;BME280;54902;50.420;18.854;2024-02-15T01:36:17;101827.55;;;7.61;74.36
55044;BME280;54902;50.420;18.854;2024-02-15T01:36:48;101829.31;;;7.62;74.36
55044;BME280;54902;50.420;18.854;2024-02-15T01:37:21;101824.83;;;7.61;74.37
55044;BME280;54902;50.420;18.854;2024-02-15T01:37:52;101831.14;;;7.62;74.35
55044;BME280;54902;50.420;18.854;2024-02-15T01:38:23;101824.83;;;7.61;74.35
55044;BME280;54902;50.420;18.854;2024-02-15T01:38:54;101830.27;;;7.61;74.37
55044;BME280;54902;50.420;18.854;2024-02-15T01:39:24;101830.27;;;7.61;74.36
55044;BME280;54902;50.420;18.854;2024-02-15T01:39:55;101823.97;;;7.61;74.37
55044;BME280;54902;50.420;18.854;2024-02-15T01:40:26;101826.69;;;7.61;74.37
55044;BME280;54902;50.420;18.854;2024-02-15T01:40:57;101829.41;;;7.61;74.39
55044;BME280;54902;50.420;18.854;2024-02-15T01:41:28;101823.97;;;7.61;74.38
55044;BME280;54902;50.420;18.854;2024-02-15T01:41:59;101824.83;;;7.61;74.38
55044;BME280;54902;50.420;18.854;2024-02-15T01:42:33;101828.51;;;7.60;74.40
55044;BME280;54902;50.420;18.854;2024-02-15T01:43:04;101824.93;;;7.60;74.40
55044;BME280;54902;50.420;18.854;2024-02-15T01:43:36;101823.07;;;7.60;74.38
55044;BME280;54902;50.420;18.854;2024-02-15T01:44:07;101827.55;;;7.61;74.39
55044;BME280;54902;50.420;18.854;2024-02-15T01:44:38;101822.02;;;7.63;74.40
55044;BME280;54902;50.420;18.854;2024-02-15T01:45:10;101830.27;;;7.61;74.39
55044;BME280;54902;50.420;18.854;2024-02-15T01:45:45;101828.51;;;7.60;74.39
55044;BME280;54902;50.420;18.854;2024-02-15T01:46:19;101827.55;;;7.61;74.39
55044;BME280;54902;50.420;18.854;2024-02-15T01:46:52;101816.87;;;7.58;74.44
55044;BME280;54902;50.420;18.854;2024-02-15T01:47:25;101823.07;;;7.60;74.40
55044;BME280;54902;50.420;18.854;2024-02-15T01:47:56;101818.53;;;7.61;74.40
55044;BME280;54902;50.420;18.854;2024-02-15T01:48:29;101817.63;;;7.60;74.41
55044;BME280;54902;50.420;18.854;2024-02-15T01:49:00;101823.97;;;7.61;74.40
55044;BME280;54902;50.420;18.854;2024-02-15T01:49:32;101823.07;;;7.60;74.40
55044;BME280;54902;50.420;18.854;2024-02-15T01:50:03;101823.97;;;7.61;74.40
55044;BME280;54902;50.420;18.854;2024-02-15T01:50:36;101817.63;;;7.60;74.42
55044;BME280;54902;50.420;18.854;2024-02-15T01:51:08;101813.09;;;7.61;74.42
55044;BME280;54902;50.420;18.854;2024-02-15T01:51:40;101816.68;;;7.61;74.42
55044;BME280;54902;50.420;18.854;2024-02-15T01:52:13;101830.27;;;7.61;74.43
55044;BME280;54902;50.420;18.854;2024-02-15T01:52:47;101819.40;;;7.61;74.42
55044;BME280;54902;50.420;18.854;2024-02-15T01:53:18;101820.35;;;7.60;74.42
55044;BME280;54902;50.420;18.854;2024-02-15T01:53:49;101826.69;;;7.61;74.43
55044;BME280;54902;50.420;18.854;2024-02-15T01:54:21;101827.55;;;7.61;74.43
55044;BME280;54902;50.420;18.854;2024-02-15T01:54:52;101827.55;;;7.61;74.43
55044;BME280;54902;50.420;18.854;2024-02-15T01:55:24;101826.69;;;7.61;74.44
55044;BME280;54902;50.420;18.854;2024-02-15T01:55:56;101822.98;;;7.62;74.44
55044;BME280;54902;50.420;18.854;2024-02-15T01:56:31;101825.70;;;7.62;74.46
55044;BME280;54902;50.420;18.854;2024-02-15T01:57:03;101824.83;;;7.61;74.45
55044;BME280;54902;50.420;18.854;2024-02-15T01:57:37;101819.40;;;7.61;74.44
55044;BME280;54902;50.420;18.854;2024-02-15T01:58:08;101824.83;;;7.61;74.45
55044;BME280;54902;50.420;18.854;2024-02-15T01:58:40;101830.27;;;7.61;74.45
55044;BME280;54902;50.420;18.854;2024-02-15T01:59:15;101822.98;;;7.62;74.43
55044;BME280;54902;50.420;18.854;2024-02-15T01:59:47;101825.70;;;7.62;74.45
55044;BME280;54902;50.420;18.854;2024-02-15T02:00:19;101826.60;;;7.62;74.45
55044;BME280;54902;50.420;18.854;2024-02-15T02:00:50;101818.53;;;7.61;74.46
55044;BME280;54902;50.420;18.854;2024-02-15T02:01:22;101822.98;;;7.62;74.46
55044;BME280;54902;50.420;18.854;2024-02-15T02:01:53;101822.11;;;7.61;74.44
55044;BME280;54902;50.420;18.854;2024-02-15T02:02:25;101821.16;;;7.62;74.46
55044;BME280;54902;50.420;18.854;2024-02-15T02:03:02;101819.40;;;7.61;74.45
55044;BME280;54902;50.420;18.854;2024-02-15T02:03:33;101826.60;;;7.62;74.46
55044;BME280;54902;50.420;18.854;2024-02-15T02:04:05;101822.11;;;7.61;74.46
55044;BME280;54902;50.420;18.854;2024-02-15T02:04:37;101824.83;;;7.61;74.47
55044;BME280;54902;50.420;18.854;2024-02-15T02:05:08;101821.16;;;7.62;74.47
55044;BME280;54902;50.420;18.854;2024-02-15T02:05:40;101809.38;;;7.62;74.47
55044;BME280;54902;50.420;18.854;2024-02-15T02:06:12;101808.52;;;7.61;74.49
55044;BME280;54902;50.420;18.854;2024-02-15T02:06:44;101815.72;;;7.62;74.49
55044;BME280;54902;50.420;18.854;2024-02-15T02:07:15;101809.38;;;7.62;74.49
55044;BME280;54902;50.420;18.854;2024-02-15T02:07:46;101817.54;;;7.62;74.49
55044;BME280;54902;50.420;18.854;2024-02-15T02:08:17;101815.72;;;7.62;74.48
55044;BME280;54902;50.420;18.854;2024-02-15T02:08:48;101818.45;;;7.62;74.50
55044;BME280;54902;50.420;18.854;2024-02-15T02:09:20;101816.68;;;7.61;74.49
55044;BME280;54902;50.420;18.854;2024-02-15T02:09:51;101811.23;;;7.61;74.49
55044;BME280;54902;50.420;18.854;2024-02-15T02:10:22;101813.96;;;7.61;74.49
55044;BME280;54902;50.420;18.854;2024-02-15T02:10:53;101803.09;;;7.61;74.49
55044;BME280;54902;50.420;18.854;2024-02-15T02:11:24;101806.66;;;7.62;74.49
55044;BME280;54902;50.420;18.854;2024-02-15T02:11:56;101802.21;;;7.61;74.49
55044;BME280;54902;50.420;18.854;2024-02-15T02:12:28;101808.52;;;7.61;74.49
55044;BME280;54902;50.420;18.854;2024-02-15T02:13:02;101809.38;;;7.62;74.49
55044;BME280;54902;50.420;18.854;2024-02-15T02:13:33;101809.38;;;7.62;74.50
55044;BME280;54902;50.420;18.854;2024-02-15T02:14:05;101804.94;;;7.61;74.51
55044;BME280;54902;50.420;18.854;2024-02-15T02:14:36;101813.01;;;7.62;74.50
55044;BME280;54902;50.420;18.854;2024-02-15T02:15:08;101801.23;;;7.62;74.50
55044;BME280;54902;50.420;18.854;2024-02-15T02:15:39;101809.38;;;7.62;74.50
55044;BME280;54902;50.420;18.854;2024-02-15T02:16:53;101810.28;;;7.62;74.50
55044;BME280;54902;50.420;18.854;2024-02-15T02:17:25;101810.38;;;7.61;74.49
55044;BME280;54902;50.420;18.854;2024-02-15T02:17:57;101807.56;;;7.62;74.50
55044;BME280;54902;50.420;18.854;2024-02-15T02:18:32;101802.21;;;7.61;74.50
55044;BME280;54902;50.420;18.854;2024-02-15T02:19:02;101803.09;;;7.61;74.52
55044;BME280;54902;50.420;18.854;2024-02-15T02:19:40;101803.09;;;7.61;74.52
55044;BME280;54902;50.420;18.854;2024-02-15T02:20:11;101803.09;;;7.61;74.52
55044;BME280;54902;50.420;18.854;2024-02-15T02:20:44;101800.35;;;7.61;74.51
55044;BME280;54902;50.420;18.854;2024-02-15T02:21:16;101801.23;;;7.62;74.54
55044;BME280;54902;50.420;18.854;2024-02-15T02:21:47;101797.64;;;7.61;74.54
55044;BME280;54902;50.420;18.854;2024-02-15T02:22:21;101803.95;;;7.62;74.53
55044;BME280;54902;50.420;18.854;2024-02-15T02:22:53;101792.20;;;7.61;74.53
55044;BME280;54902;50.420;18.854;2024-02-15T02:23:30;101803.09;;;7.61;74.52
55044;BME280;54902;50.420;18.854;2024-02-15T02:24:13;101796.69;;;7.62;74.54
55044;BME280;54902;50.420;18.854;2024-02-15T02:25:29;101792.12;;;7.63;74.56
55044;BME280;54902;50.420;18.854;2024-02-15T02:26:00;101804.84;;;7.62;74.54
55044;BME280;54902;50.420;18.854;2024-02-15T02:26:32;101802.13;;;7.62;74.54
55044;BME280;54902;50.420;18.854;2024-02-15T02:27:05;101804.84;;;7.62;74.56
55044;BME280;54902;50.420;18.854;2024-02-15T02:27:38;101804.84;;;7.62;74.57
55044;BME280;54902;50.420;18.854;2024-02-15T02:28:10;101801.17;;;7.63;74.57
55044;BME280;54902;50.420;18.854;2024-02-15T02:28:41;101803.89;;;7.63;74.57
55044;BME280;54902;50.420;18.854;2024-02-15T02:29:14;101806.61;;;7.63;74.58
55044;BME280;54902;50.420;18.854;2024-02-15T02:29:45;101795.73;;;7.63;74.59
55044;BME280;54902;50.420;18.854;2024-02-15T02:30:17;101794.83;;;7.63;74.57
55044;BME280;54902;50.420;18.854;2024-02-15T02:30:49;101800.27;;;7.63;74.59
55044;BME280;54902;50.420;18.854;2024-02-15T02:31:21;101806.61;;;7.63;74.58
55044;BME280;54902;50.420;18.854;2024-02-15T02:31:52;101793.02;;;7.63;74.59
55044;BME280;54902;50.420;18.854;2024-02-15T02:32:23;101791.16;;;7.64;74.61
55044;BME280;54902;50.420;18.854;2024-02-15T02:32:54;101792.92;;;7.65;74.57
55044;BME280;54902;50.420;18.854;2024-02-15T02:33:25;101797.46;;;7.64;74.58
55044;BME280;54902;50.420;18.854;2024-02-15T02:33:59;101789.30;;;7.64;74.60
55044;BME280;54902;50.420;18.854;2024-02-15T02:34:30;101788.44;;;7.64;74.59
55044;BME280;54902;50.420;18.854;2024-02-15T02:35:01;101786.58;;;7.64;74.58
55044;BME280;54902;50.420;18.854;2024-02-15T02:35:32;101788.34;;;7.65;74.59
55044;BME280;54902;50.420;18.854;2024-02-15T02:36:04;101776.07;;;7.58;74.58
55044;BME280;54902;50.420;18.854;2024-02-15T02:36:45;101789.21;;;7.66;74.61
55044;BME280;54902;50.420;18.854;2024-02-15T02:37:18;101776.75;;;7.62;74.59
55044;BME280;54902;50.420;18.854;2024-02-15T02:37:50;101787.40;;;7.66;74.59
55044;BME280;54902;50.420;18.854;2024-02-15T02:38:21;101789.21;;;7.66;74.58
55044;BME280;54902;50.420;18.854;2024-02-15T02:38:52;101785.63;;;7.65;74.59
55044;BME280;54902;50.420;18.854;2024-02-15T02:39:23;101787.48;;;7.65;74.59
55044;BME280;54902;50.420;18.854;2024-02-15T02:39:54;101781.05;;;7.66;74.60
55044;BME280;54902;50.420;18.854;2024-02-15T02:40:26;101785.63;;;7.65;74.58
55044;BME280;54902;50.420;18.854;2024-02-15T02:40:57;101784.67;;;7.66;74.58
55044;BME280;54902;50.420;18.854;2024-02-15T02:41:28;101789.21;;;7.66;74.57
55044;BME280;54902;50.420;18.854;2024-02-15T02:41:59;101783.77;;;7.66;74.58
55044;BME280;54902;50.420;18.854;2024-02-15T02:42:30;101780.19;;;7.65;74.59
55044;BME280;54902;50.420;18.854;2024-02-15T02:43:01;101783.77;;;7.66;74.57
55044;BME280;54902;50.420;18.854;2024-02-15T02:43:32;101788.26;;;7.67;74.57
55044;BME280;54902;50.420;18.854;2024-02-15T02:44:03;101777.47;;;7.65;74.57
55044;BME280;54902;50.420;18.854;2024-02-15T02:44:35;101785.63;;;7.65;74.57
55044;BME280;54902;50.420;18.854;2024-02-15T02:45:06;101780.19;;;7.65;74.58
55044;BME280;54902;50.420;18.854;2024-02-15T02:45:37;101785.63;;;7.65;74.57
55044;BME280;54902;50.420;18.854;2024-02-15T02:46:11;101787.48;;;7.65;74.57
55044;BME280;54902;50.420;18.854;2024-02-15T02:46:42;101782.91;;;7.65;74.57
55044;BME280;54902;50.420;18.854;2024-02-15T02:47:13;101791.06;;;7.65;74.57
55044;BME280;54902;50.420;18.854;2024-02-15T02:47:44;101782.91;;;7.65;74.56